createdAt,value
2022-09-04T00:00:11.961Z,10.73
2022-09-04T00:03:00.870Z,8.07
2022-09-04T00:05:37.281Z,5.32
2022-09-04T00:08:11.901Z,7.30
2022-09-04T00:10:55.744Z,6.62
2022-09-04T00:13:52.535Z,5.55
2022-09-04T00:16:25.525Z,6.85
2022-09-04T00:19:04.034Z,5.55
2022-09-04T00:21:36.542Z,6.60
2022-09-04T00:24:06.194Z,6.75
2022-09-04T00:26:58.505Z,6.15
2022-09-04T00:29:43.867Z,7.20
2022-09-04T00:32:20.094Z,10.90
2022-09-04T00:35:05.217Z,6.50
2022-09-04T00:37:39.624Z,6.60
2022-09-04T00:40:18.023Z,7.65
2022-09-04T00:43:12.812Z,6.93
2022-09-04T00:45:58.798Z,8.00
2022-09-04T00:49:21.422Z,7.70
2022-09-04T00:52:09.243Z,6.28
2022-09-04T00:55:02.803Z,7.12
2022-09-04T00:58:02.092Z,5.93
2022-09-04T01:00:30.463Z,6.62
2022-09-04T01:03:04.069Z,6.68
2022-09-04T01:05:45.701Z,7.55
2022-09-04T01:08:30.735Z,7.60
2022-09-04T01:11:04.044Z,7.05
2022-09-04T01:13:34.097Z,9.07
2022-09-04T01:16:08.090Z,7.03
2022-09-04T01:18:46.477Z,8.40
2022-09-04T01:21:39.031Z,9.52
2022-09-04T01:24:27.432Z,8.82
2022-09-04T01:27:05.869Z,7.68
2022-09-04T01:30:08.223Z,7.55
2022-09-04T01:32:48.897Z,7.62
2022-09-04T01:35:35.760Z,7.62
2022-09-04T01:38:25.645Z,7.17
2022-09-04T01:41:14.522Z,7.30
2022-09-04T01:43:41.636Z,8.45
2022-09-04T01:46:14.776Z,9.32
2022-09-04T01:49:02.801Z,6.68
2022-09-04T01:52:11.854Z,7.68
2022-09-04T01:54:48.561Z,10.32
2022-09-04T01:57:58.480Z,6.68
2022-09-04T02:00:25.919Z,7.50
2022-09-04T02:03:03.951Z,9.70
2022-09-04T02:05:49.559Z,7.25
2022-09-04T02:08:49.846Z,7.68
2022-09-04T02:11:28.044Z,7.57
2022-09-04T02:14:11.472Z,7.72
2022-09-04T02:16:42.930Z,7.60
2022-09-04T02:19:45.323Z,7.18
2022-09-04T02:22:46.163Z,8.10
2022-09-04T02:25:35.468Z,8.65
2022-09-04T02:28:08.661Z,7.95
2022-09-04T02:31:10.281Z,10.18
2022-09-04T02:33:54.870Z,6.68
2022-09-04T02:36:28.148Z,8.75
2022-09-04T02:39:01.656Z,6.72
2022-09-04T02:41:52.995Z,8.10
2022-09-04T02:44:38.733Z,9.43
2022-09-04T02:47:18.600Z,9.63
2022-09-04T02:49:52.129Z,6.70
2022-09-04T02:52:41.431Z,7.18
2022-09-04T02:55:45.759Z,7.40
2022-09-04T02:58:20.193Z,7.45
2022-09-04T03:01:04.127Z,10.18
2022-09-04T03:03:34.067Z,6.72
2022-09-04T03:06:13.698Z,10.32
2022-09-04T03:09:09.299Z,7.55
2022-09-04T03:11:41.007Z,6.32
2022-09-04T03:14:34.716Z,8.88
2022-09-04T03:17:47.795Z,8.10
2022-09-04T03:20:20.352Z,8.20
2022-09-04T03:23:28.745Z,8.43
2022-09-04T03:26:05.434Z,9.23
2022-09-04T03:28:45.845Z,9.10
2022-09-04T03:31:32.609Z,7.60
2022-09-04T03:34:23.291Z,6.70
2022-09-04T03:37:05.726Z,7.87
2022-09-04T03:40:02.298Z,6.90
2022-09-04T03:42:31.888Z,7.65
2022-09-04T03:45:11.038Z,7.20
2022-09-04T03:48:05.792Z,8.90
2022-09-04T03:50:38.418Z,6.50
2022-09-04T03:53:19.333Z,9.43
2022-09-04T03:56:07.066Z,8.20
2022-09-04T03:58:46.786Z,9.23
2022-09-04T04:01:33.814Z,11.30
2022-09-04T04:04:16.967Z,9.18
2022-09-04T04:06:53.089Z,7.60
2022-09-04T04:10:10.506Z,8.27
2022-09-04T04:12:56.985Z,8.00
2022-09-04T04:15:27.900Z,8.80
2022-09-04T04:18:01.382Z,7.68
2022-09-04T04:20:58.390Z,8.05
2022-09-04T04:24:06.800Z,7.80
2022-09-04T04:27:04.224Z,7.37
2022-09-04T04:29:49.357Z,8.40
2022-09-04T04:32:24.557Z,7.72
2022-09-04T04:35:11.646Z,7.32
2022-09-04T04:38:06.962Z,8.13
2022-09-04T04:41:00.902Z,8.90
2022-09-04T04:43:30.750Z,11.90
2022-09-04T04:46:29.414Z,8.65
2022-09-04T04:49:17.813Z,8.82
2022-09-04T04:52:16.971Z,9.02
2022-09-04T04:55:05.505Z,8.63
2022-09-04T04:57:32.396Z,12.13
2022-09-04T05:00:27.786Z,10.82
2022-09-04T05:03:46.201Z,10.13
2022-09-04T05:06:36.223Z,8.30
2022-09-04T05:09:09.179Z,9.38
2022-09-04T05:12:17.078Z,8.95
2022-09-04T05:14:53.015Z,9.83
2022-09-04T05:17:56.898Z,9.48
2022-09-04T05:20:33.471Z,12.02
2022-09-04T05:23:37.189Z,9.13
2022-09-04T05:26:38.158Z,11.20
2022-09-04T05:29:13.478Z,10.20
2022-09-04T05:31:58.299Z,10.35
2022-09-04T05:34:37.015Z,9.63
2022-09-04T05:37:35.483Z,8.90
2022-09-04T05:40:22.535Z,8.98
2022-09-04T05:42:54.579Z,10.32
2022-09-04T05:45:36.217Z,9.73
2022-09-04T05:48:24.783Z,11.07
2022-09-04T05:51:13.725Z,9.98
2022-09-04T05:54:05.093Z,10.75
2022-09-04T05:56:39.461Z,11.55
2022-09-04T05:59:18.936Z,10.02
2022-09-04T06:02:01.916Z,12.77
2022-09-04T06:04:34.699Z,10.38
2022-09-04T06:08:03.185Z,11.73
2022-09-04T06:11:07.308Z,11.25
2022-09-04T06:13:55.720Z,10.77
2022-09-04T06:16:47.451Z,12.10
2022-09-04T06:19:23.532Z,10.07
2022-09-04T06:21:56.510Z,9.98
2022-09-04T06:24:41.940Z,9.40
2022-09-04T06:27:27.187Z,11.80
2022-09-04T06:30:12.943Z,11.32
2022-09-04T06:33:05.568Z,13.55
2022-09-04T06:35:52.187Z,11.07
2022-09-04T06:38:34.076Z,11.35
2022-09-04T06:41:22.772Z,11.60
2022-09-04T06:43:58.626Z,11.43
2022-09-04T06:46:40.924Z,13.77
2022-09-04T06:49:27.310Z,15.00
2022-09-04T06:52:07.724Z,12.43
2022-09-04T06:54:40.856Z,12.48
2022-09-04T06:57:32.676Z,12.57
2022-09-04T07:00:04.784Z,13.82
2022-09-04T07:02:54.624Z,12.75
2022-09-04T07:05:45.158Z,12.35
2022-09-04T07:08:24.162Z,13.05
2022-09-04T07:11:12.790Z,13.48
2022-09-04T07:13:57.752Z,13.40
2022-09-04T07:16:27.621Z,16.33
2022-09-04T07:19:03.617Z,15.07
2022-09-04T07:21:49.665Z,16.02
2022-09-04T07:24:38.897Z,13.68
2022-09-04T07:27:42.645Z,15.32
2022-09-04T07:30:12.688Z,14.57
2022-09-04T07:33:10.456Z,14.93
2022-09-04T07:35:57.437Z,13.40
2022-09-04T07:38:31.061Z,14.20
2022-09-04T07:41:20.193Z,13.18
2022-09-04T07:44:14.348Z,14.73
2022-09-04T07:46:57.807Z,15.05
2022-09-04T07:50:00.916Z,13.65
2022-09-04T07:52:38.701Z,12.40
2022-09-04T07:55:09.188Z,12.57
2022-09-04T07:58:03.696Z,11.63
2022-09-04T08:00:55.526Z,14.13
2022-09-04T08:03:37.428Z,14.55
2022-09-04T08:06:36.232Z,13.75
2022-09-04T08:09:25.395Z,14.10
2022-09-04T08:12:08.136Z,12.70
2022-09-04T08:14:46.059Z,14.48
2022-09-04T08:17:28.132Z,13.60
2022-09-04T08:20:17.752Z,12.50
2022-09-04T08:23:13.922Z,12.68
2022-09-04T08:26:20.407Z,11.68
2022-09-04T08:29:12.749Z,13.98
2022-09-04T08:31:43.630Z,13.50
2022-09-04T08:34:25.697Z,13.07
2022-09-04T08:37:06.683Z,13.60
2022-09-04T08:39:56.002Z,12.45
2022-09-04T08:42:38.985Z,15.05
2022-09-04T08:45:24.307Z,12.25
2022-09-04T08:48:12.317Z,12.35
2022-09-04T08:51:05.238Z,11.80
2022-09-04T08:54:03.874Z,14.15
2022-09-04T08:56:38.121Z,13.05
2022-09-04T08:59:20.364Z,14.52
2022-09-04T09:02:14.474Z,14.43
2022-09-04T09:05:15.907Z,13.85
2022-09-04T09:08:20.414Z,12.73
2022-09-04T09:11:03.237Z,13.18
2022-09-04T09:13:51.906Z,14.90
2022-09-04T09:16:40.137Z,12.13
2022-09-04T09:19:11.424Z,12.45
2022-09-04T09:21:50.719Z,9.07
2022-09-04T09:24:24.610Z,10.13
2022-09-04T09:27:09.759Z,9.57
2022-09-04T09:30:08.873Z,8.60
2022-09-04T09:32:54.383Z,9.25
2022-09-04T09:35:51.762Z,9.88
2022-09-04T09:38:35.024Z,9.20
2022-09-04T09:41:20.656Z,7.95
2022-09-04T09:44:15.502Z,7.68
2022-09-04T09:47:27.407Z,7.85
2022-09-04T09:50:20.952Z,8.38
2022-09-04T09:53:17.959Z,7.93
2022-09-04T09:56:08.517Z,8.02
2022-09-04T09:58:50.974Z,10.38
2022-09-04T10:01:20.863Z,8.00
2022-09-04T10:03:53.704Z,8.57
2022-09-04T10:06:53.319Z,7.28
2022-09-04T10:09:29.238Z,9.30
2022-09-04T10:12:02.235Z,8.10
2022-09-04T10:15:09.085Z,6.45
2022-09-04T10:17:50.838Z,8.00
2022-09-04T10:20:46.429Z,7.93
2022-09-04T10:23:40.919Z,9.13
2022-09-04T10:26:35.359Z,7.57
2022-09-04T10:29:32.739Z,7.97
2022-09-04T10:32:05.610Z,8.55
2022-09-04T10:35:15.256Z,8.77
2022-09-04T10:38:12.999Z,8.35
2022-09-04T10:41:15.128Z,8.77
2022-09-04T10:43:58.327Z,7.75
2022-09-04T10:46:30.223Z,8.48
2022-09-04T10:49:30.616Z,8.38
2022-09-04T10:52:06.681Z,10.13
2022-09-04T10:54:51.064Z,9.43
2022-09-04T10:57:37.524Z,10.80
2022-09-04T11:00:14.649Z,8.80
2022-09-04T11:03:13.961Z,10.27
2022-09-04T11:06:11.285Z,10.00
2022-09-04T11:09:15.433Z,8.70
2022-09-04T11:11:53.679Z,7.62
2022-09-04T11:14:39.092Z,10.35
2022-09-04T11:17:28.703Z,7.93
2022-09-04T11:20:37.012Z,9.73
2022-09-04T11:23:23.321Z,8.25
2022-09-04T11:26:27.836Z,8.75
2022-09-04T11:29:00.746Z,9.38
2022-09-04T11:31:30.508Z,8.10
2022-09-04T11:34:23.114Z,7.15
2022-09-04T11:37:15.623Z,8.23
2022-09-04T11:39:51.791Z,8.82
2022-09-04T11:42:28.543Z,7.97
2022-09-04T11:48:05.690Z,9.23
2022-09-04T11:50:38.492Z,8.93
2022-09-04T11:53:30.462Z,7.75
2022-09-04T11:56:36.455Z,7.80
2022-09-04T11:59:11.031Z,8.23
2022-09-04T12:02:20.305Z,9.55
2022-09-04T12:05:08.877Z,8.50
2022-09-04T12:07:45.040Z,8.82
2022-09-04T12:10:30.879Z,7.75
2022-09-04T12:13:15.852Z,7.82
2022-09-04T12:15:55.861Z,7.95
2022-09-04T12:18:34.975Z,7.95
2022-09-04T12:21:26.719Z,6.90
2022-09-04T12:23:59.357Z,8.75
2022-09-04T12:26:33.660Z,9.35
2022-09-04T12:29:22.821Z,6.35
2022-09-04T12:32:25.515Z,6.97
2022-09-04T12:35:10.728Z,6.75
2022-09-04T12:37:56.489Z,6.62
2022-09-04T12:40:31.379Z,6.20
2022-09-04T12:43:07.090Z,15.48
2022-09-04T12:45:55.414Z,9.05
2022-09-04T12:48:28.026Z,7.28
2022-09-04T12:51:12.908Z,6.07
2022-09-04T12:53:57.678Z,7.30
2022-09-04T12:56:28.057Z,7.15
2022-09-04T12:58:59.514Z,8.13
2022-09-04T13:01:40.981Z,8.50
2022-09-04T13:04:30.554Z,8.40
2022-09-04T13:07:28.549Z,7.82
2022-09-04T13:10:13.608Z,7.40
2022-09-04T13:13:08.342Z,8.73
2022-09-04T13:15:54.180Z,6.25
2022-09-04T13:18:39.496Z,7.22
2022-09-04T13:21:17.645Z,8.52
2022-09-04T13:24:04.077Z,9.05
2022-09-04T13:26:57.016Z,7.27
2022-09-04T13:29:53.136Z,9.02
2022-09-04T13:32:35.162Z,8.00
2022-09-04T13:35:39.700Z,7.03
2022-09-04T13:38:09.308Z,6.03
2022-09-04T13:41:05.110Z,6.57
2022-09-04T13:43:41.679Z,5.93
2022-09-04T13:46:13.357Z,7.93
2022-09-04T13:48:43.968Z,6.65
2022-09-04T13:51:16.093Z,7.22
2022-09-04T13:53:58.980Z,7.12
2022-09-04T13:56:34.991Z,7.78
2022-09-04T13:59:09.638Z,8.48
2022-09-04T14:01:46.333Z,6.82
2022-09-04T14:07:11.696Z,7.18
2022-09-04T14:09:42.917Z,6.12
2022-09-04T14:12:16.597Z,6.35
2022-09-04T14:15:20.870Z,7.82
2022-09-04T14:18:05.507Z,7.25
2022-09-04T14:20:40.756Z,9.43
2022-09-04T14:23:20.558Z,6.82
2022-09-04T14:26:04.420Z,6.32
2022-09-04T14:28:41.678Z,5.62
2022-09-04T14:31:34.121Z,7.78
2022-09-04T14:34:13.922Z,9.65
2022-09-04T14:36:56.703Z,6.85
2022-09-04T14:39:44.344Z,6.70
2022-09-04T14:42:30.005Z,7.43
2022-09-04T14:45:23.562Z,7.40
2022-09-04T14:47:55.057Z,6.15
2022-09-04T14:50:30.486Z,5.43
2022-09-04T14:53:01.192Z,6.22
2022-09-04T14:55:30.471Z,11.30
2022-09-04T14:58:19.806Z,7.28
2022-09-04T15:00:59.351Z,5.75
2022-09-04T15:03:32.308Z,5.82
2022-09-04T15:06:02.485Z,5.60
2022-09-04T15:08:39.940Z,7.35
2022-09-04T15:11:30.979Z,6.12
2022-09-04T15:14:05.183Z,8.50
2022-09-04T15:16:32.114Z,6.30
2022-09-04T15:19:08.990Z,7.62
2022-09-04T15:24:27.670Z,6.55
2022-09-04T15:27:20.752Z,5.20
2022-09-04T15:29:53.644Z,5.87
2022-09-04T15:32:39.871Z,5.53
2022-09-04T15:35:23.147Z,7.28
2022-09-04T15:38:07.742Z,7.80
2022-09-04T15:40:59.663Z,5.55
2022-09-04T15:43:31.480Z,5.62
2022-09-04T15:46:06.196Z,5.90
2022-09-04T15:48:53.676Z,6.45
2022-09-04T15:51:37.677Z,8.43
2022-09-04T15:54:33.633Z,7.65
2022-09-04T15:57:17.550Z,6.28
2022-09-04T16:00:00.990Z,6.72
2022-09-04T16:02:43.185Z,6.37
2022-09-04T16:05:36.263Z,5.18
2022-09-04T16:08:22.039Z,5.78
2022-09-04T16:11:04.392Z,5.80
2022-09-04T16:13:58.303Z,5.85
2022-09-04T16:16:29.280Z,6.37
2022-09-04T16:19:25.676Z,7.07
2022-09-04T16:22:26.519Z,8.60
2022-09-04T16:25:11.973Z,7.25
2022-09-04T16:27:45.089Z,8.13
2022-09-04T16:30:30.359Z,6.50
2022-09-04T16:32:58.618Z,7.22
2022-09-04T16:35:25.946Z,8.80
2022-09-04T16:37:59.466Z,10.50
2022-09-04T16:40:59.081Z,9.60
2022-09-04T16:43:34.763Z,8.40
2022-09-04T16:46:13.755Z,8.60
2022-09-04T16:48:55.312Z,9.95
2022-09-04T16:51:40.320Z,9.65
2022-09-04T16:54:12.117Z,11.35
2022-09-04T16:56:50.354Z,7.05
2022-09-04T16:59:38.164Z,7.82
2022-09-04T17:02:37.735Z,9.30
2022-09-04T17:05:40.189Z,8.05
2022-09-04T17:08:18.706Z,8.52
2022-09-04T17:11:22.374Z,9.25
2022-09-04T17:13:52.385Z,8.15
2022-09-04T17:16:24.263Z,10.05
2022-09-04T17:18:55.799Z,8.25
2022-09-04T17:22:33.248Z,13.95
2022-09-04T17:28:54.532Z,9.18
2022-09-04T17:29:16.884Z,9.15
2022-09-04T17:30:45.333Z,11.93
2022-09-04T17:36:50.630Z,10.70
2022-09-04T17:41:29.613Z,8.18
2022-09-04T17:42:32.658Z,11.18
2022-09-04T17:45:00.367Z,9.15
2022-09-04T17:47:33.320Z,9.50
2022-09-04T17:50:02.037Z,8.70
2022-09-04T17:52:32.806Z,9.05
2022-09-04T17:55:12.075Z,9.05
2022-09-04T17:58:15.277Z,8.07
2022-09-04T18:01:15.662Z,10.55
2022-09-04T18:04:21.997Z,11.25
2022-09-04T18:06:57.791Z,10.40
2022-09-04T18:09:41.215Z,9.70
2022-09-04T18:12:19.493Z,9.40
2022-09-04T18:15:32.419Z,10.32
2022-09-04T18:18:22.327Z,9.57
2022-09-04T18:20:55.653Z,9.63
2022-09-04T18:23:46.014Z,9.70
2022-09-04T18:26:23.348Z,8.70
2022-09-04T18:31:07.257Z,9.43
2022-09-04T18:37:15.826Z,12.00
2022-09-04T18:37:25.849Z,9.88
2022-09-04T18:38:19.787Z,9.82
2022-09-04T18:44:08.713Z,9.45
2022-09-04T18:50:23.982Z,8.63
2022-09-04T18:50:37.436Z,12.43
2022-09-04T18:50:41.120Z,9.88
2022-09-04T18:52:48.795Z,10.40
2022-09-04T18:55:42.907Z,14.95
2022-09-04T18:58:12.746Z,11.55
2022-09-04T19:00:53.433Z,12.30
2022-09-04T19:03:42.131Z,9.27
2022-09-04T19:06:15.424Z,9.63
2022-09-04T19:08:52.080Z,12.13
2022-09-04T19:11:42.604Z,9.30
2022-09-04T19:14:19.632Z,11.77
2022-09-04T19:16:55.869Z,13.05
2022-09-04T19:19:50.887Z,13.10
2022-09-04T19:22:38.065Z,10.00
2022-09-04T19:25:21.374Z,10.25
2022-09-04T19:27:58.535Z,10.07
2022-09-04T19:30:27.339Z,8.75
2022-09-04T19:33:03.049Z,9.50
2022-09-04T19:35:42.148Z,9.45
2022-09-04T19:41:42.976Z,11.18
2022-09-04T19:45:54.984Z,10.65
2022-09-04T19:46:17.656Z,13.00
2022-09-04T19:47:09.373Z,11.12
2022-09-04T19:53:18.120Z,11.52
2022-09-04T19:53:34.184Z,11.88
2022-09-04T19:56:19.575Z,10.60
2022-09-04T19:58:52.598Z,12.95
2022-09-04T20:01:44.600Z,9.77
2022-09-04T20:04:28.059Z,11.12
2022-09-04T20:06:59.483Z,11.60
2022-09-04T20:09:37.685Z,11.25
2022-09-04T20:12:13.479Z,11.02
2022-09-04T20:14:51.464Z,12.55
2022-09-04T20:18:04.185Z,12.32
2022-09-04T20:20:37.547Z,12.02
2022-09-04T20:23:51.881Z,11.18
2022-09-04T20:26:42.809Z,12.18
2022-09-04T20:29:23.741Z,11.73
2022-09-04T20:32:04.344Z,9.95
2022-09-04T20:34:34.078Z,13.35
2022-09-04T20:37:19.497Z,12.82
2022-09-04T20:40:16.875Z,10.82
2022-09-04T20:42:56.735Z,9.98
2022-09-04T20:49:35.203Z,8.77
2022-09-04T20:52:55.659Z,9.85
2022-09-04T20:52:59.018Z,9.85
2022-09-04T20:54:56.231Z,10.77
2022-09-04T21:03:13.055Z,11.27
2022-09-04T21:03:22.836Z,11.43
2022-09-04T21:03:35.158Z,9.48
2022-09-04T21:06:18.216Z,10.07
2022-09-04T21:09:07.634Z,9.05
2022-09-04T21:11:39.185Z,12.20
2022-09-04T21:14:45.166Z,10.63
2022-09-04T21:17:38.898Z,9.77
2022-09-04T21:20:30.636Z,10.63
2022-09-04T21:23:11.613Z,10.15
2022-09-04T21:26:15.872Z,9.43
2022-09-04T21:28:59.705Z,11.43
2022-09-04T21:32:01.318Z,10.02
2022-09-04T21:34:55.011Z,10.73
2022-09-04T21:37:34.167Z,9.95
2022-09-04T21:40:51.793Z,12.13
2022-09-04T21:43:36.227Z,10.27
2022-09-04T21:46:34.911Z,11.00
2022-09-04T21:49:29.760Z,9.68
2022-09-04T21:52:06.367Z,9.27
2022-09-04T21:55:29.854Z,9.68
2022-09-04T22:02:32.575Z,10.00
2022-09-04T22:02:37.648Z,12.37
2022-09-04T22:04:35.572Z,9.82
2022-09-04T22:10:33.769Z,9.68
2022-09-04T22:13:40.855Z,10.65
2022-09-04T22:13:43.378Z,10.50
2022-09-04T22:16:41.988Z,11.45
2022-09-04T22:19:33.918Z,13.25
2022-09-04T22:22:14.105Z,10.50
2022-09-04T22:25:04.487Z,13.50
2022-09-04T22:28:07.549Z,9.23
2022-09-04T22:31:05.447Z,10.18
2022-09-04T22:34:20.143Z,11.48
2022-09-04T22:37:06.699Z,11.32
2022-09-04T22:39:43.035Z,10.15
2022-09-04T22:42:34.468Z,12.18
2022-09-04T22:45:10.499Z,10.00
2022-09-04T22:47:53.498Z,10.65
2022-09-04T22:50:48.989Z,13.55
2022-09-04T22:53:36.789Z,11.63
2022-09-04T22:56:23.310Z,11.12
2022-09-04T22:58:55.788Z,10.95
2022-09-04T23:02:13.650Z,9.80
2022-09-04T23:05:03.527Z,10.38
2022-09-04T23:13:42.273Z,10.98
2022-09-04T23:13:48.166Z,10.57
2022-09-04T23:14:03.085Z,10.65
2022-09-04T23:16:34.331Z,10.35
2022-09-04T23:21:10.570Z,10.05
2022-09-04T23:26:44.143Z,11.35
2022-09-04T23:26:44.994Z,11.07
2022-09-04T23:28:48.463Z,11.82
2022-09-04T23:31:41.522Z,11.82
2022-09-04T23:34:42.637Z,11.23
2022-09-04T23:38:00.621Z,12.75
2022-09-04T23:40:35.856Z,12.65
2022-09-04T23:43:24.230Z,12.30
2022-09-04T23:46:13.539Z,13.68
2022-09-04T23:49:25.129Z,10.73
2022-09-04T23:51:57.578Z,11.18
2022-09-04T23:54:50.506Z,12.45
2022-09-04T23:57:27.290Z,11.25
